sensor_id;sensor_type;location;lat;lon;timestamp;temperature;humidity
63976;DHT22;50167;47.958;21.780;2023-01-29T00:01:54;5.12;54.90
63976;DHT22;50167;47.958;21.780;2023-01-29T00:04:21;5.04;55.53
63976;DHT22;50167;47.958;21.780;2023-01-29T00:06:47;5.04;54.83
63976;DHT22;50167;47.958;21.780;2023-01-29T00:09:14;5.22;55.12
63976;DHT22;50167;47.958;21.780;2023-01-29T00:11:40;4.79;55.80
63976;DHT22;50167;47.958;21.780;2023-01-29T00:14:07;4.95;55.55
63976;DHT22;50167;47.958;21.780;2023-01-29T00:16:33;5.10;55.56
63976;DHT22;50167;47.958;21.780;2023-01-29T00:19:03;4.98;55.10
63976;DHT22;50167;47.958;21.780;2023-01-29T00:21:30;5.15;55.64
63976;DHT22;50167;47.958;21.780;2023-01-29T00:23:57;5.08;55.24
63976;DHT22;50167;47.958;21.780;2023-01-29T00:26:25;5.00;55.77
63976;DHT22;50167;47.958;21.780;2023-01-29T00:28:51;5.38;54.82
63976;DHT22;50167;47.958;21.780;2023-01-29T00:31:24;4.83;55.74
63976;DHT22;50167;47.958;21.780;2023-01-29T00:33:51;5.19;55.58
63976;DHT22;50167;47.958;21.780;2023-01-29T00:36:20;5.01;54.92
63976;DHT22;50167;47.958;21.780;2023-01-29T00:38:47;5.00;56.12
63976;DHT22;50167;47.958;21.780;2023-01-29T00:41:15;4.80;56.18
63976;DHT22;50167;47.958;21.780;2023-01-29T00:44:00;5.01;55.78
63976;DHT22;50167;47.958;21.780;2023-01-29T00:46:45;5.21;55.29
63976;DHT22;50167;47.958;21.780;2023-01-29T00:49:11;4.76;56.30
63976;DHT22;50167;47.958;21.780;2023-01-29T00:51:38;4.94;56.35
63976;DHT22;50167;47.958;21.780;2023-01-29T00:54:05;5.38;54.58
63976;DHT22;50167;47.958;21.780;2023-01-29T00:56:34;4.91;56.25
63976;DHT22;50167;47.958;21.780;2023-01-29T00:59:02;4.90;56.57
63976;DHT22;50167;47.958;21.780;2023-01-29T01:01:28;5.41;54.67
63976;DHT22;50167;47.958;21.780;2023-01-29T01:04:13;4.67;57.01
63976;DHT22;50167;47.958;21.780;2023-01-29T01:06:41;5.12;56.28
63976;DHT22;50167;47.958;21.780;2023-01-29T01:09:09;4.84;56.15
63976;DHT22;50167;47.958;21.780;2023-01-29T01:11:54;4.52;57.42
63976;DHT22;50167;47.958;21.780;2023-01-29T01:14:21;5.41;56.48
63976;DHT22;50167;47.958;21.780;2023-01-29T01:16:48;4.87;56.30
63976;DHT22;50167;47.958;21.780;2023-01-29T01:19:15;4.83;56.84
63976;DHT22;50167;47.958;21.780;2023-01-29T01:21:42;5.31;55.57
63976;DHT22;50167;47.958;21.780;2023-01-29T01:24:13;4.94;56.12
63976;DHT22;50167;47.958;21.780;2023-01-29T01:26:40;5.19;56.16
63976;DHT22;50167;47.958;21.780;2023-01-29T01:29:06;5.07;55.98
63976;DHT22;50167;47.958;21.780;2023-01-29T01:31:33;4.79;56.69
63976;DHT22;50167;47.958;21.780;2023-01-29T01:33:59;5.16;56.12
63976;DHT22;50167;47.958;21.780;2023-01-29T01:36:25;5.04;56.12
63976;DHT22;50167;47.958;21.780;2023-01-29T01:38:51;5.19;55.73
63976;DHT22;50167;47.958;21.780;2023-01-29T01:41:21;5.14;56.19
63976;DHT22;50167;47.958;21.780;2023-01-29T01:43:55;5.18;55.35
63976;DHT22;50167;47.958;21.780;2023-01-29T01:46:24;5.35;55.73
63976;DHT22;50167;47.958;21.780;2023-01-29T01:48:58;5.22;56.03
63976;DHT22;50167;47.958;21.780;2023-01-29T01:51:26;5.10;55.72
63976;DHT22;50167;47.958;21.780;2023-01-29T01:54:07;5.26;56.09
63976;DHT22;50167;47.958;21.780;2023-01-29T01:56:39;5.08;56.36
63976;DHT22;50167;47.958;21.780;2023-01-29T01:59:10;5.03;56.35
63976;DHT22;50167;47.958;21.780;2023-01-29T02:01:38;5.25;56.02
63976;DHT22;50167;47.958;21.780;2023-01-29T02:04:12;5.04;55.52
63976;DHT22;50167;47.958;21.780;2023-01-29T02:07:00;5.15;56.44
63976;DHT22;50167;47.958;21.780;2023-01-29T02:09:54;4.98;56.15
63976;DHT22;50167;47.958;21.780;2023-01-29T02:12:21;5.01;56.76
63976;DHT22;50167;47.958;21.780;2023-01-29T02:14:47;5.28;55.16
63976;DHT22;50167;47.958;21.780;2023-01-29T02:17:16;4.87;57.04
63976;DHT22;50167;47.958;21.780;2023-01-29T02:20:04;5.43;55.19
63976;DHT22;50167;47.958;21.780;2023-01-29T02:28:36;4.84;57.16
63976;DHT22;50167;47.958;21.780;2023-01-29T02:31:35;5.22;55.76
63976;DHT22;50167;47.958;21.780;2023-01-29T02:37:24;5.14;55.68
63976;DHT22;50167;47.958;21.780;2023-01-29T02:40:10;5.12;55.84
63976;DHT22;50167;47.958;21.780;2023-01-29T02:43:00;5.24;55.95
63976;DHT22;50167;47.958;21.780;2023-01-29T02:45:34;5.07;55.80
63976;DHT22;50167;47.958;21.780;2023-01-29T02:48:01;5.35;55.42
63976;DHT22;50167;47.958;21.780;2023-01-29T02:50:44;5.15;56.39
63976;DHT22;50167;47.958;21.780;2023-01-29T02:56:11;5.46;55.33
63976;DHT22;50167;47.958;21.780;2023-01-29T02:58:51;5.11;56.68
63976;DHT22;50167;47.958;21.780;2023-01-29T03:01:29;5.07;56.10
63976;DHT22;50167;47.958;21.780;2023-01-29T03:04:00;5.07;55.94
63976;DHT22;50167;47.958;21.780;2023-01-29T03:06:35;5.24;55.87
63976;DHT22;50167;47.958;21.780;2023-01-29T03:09:06;5.07;55.65
63976;DHT22;50167;47.958;21.780;2023-01-29T03:11:37;5.29;55.61
63976;DHT22;50167;47.958;21.780;2023-01-29T03:14:24;5.01;55.90
63976;DHT22;50167;47.958;21.780;2023-01-29T03:16:51;5.36;56.03
63976;DHT22;50167;47.958;21.780;2023-01-29T03:19:35;5.00;56.10
63976;DHT22;50167;47.958;21.780;2023-01-29T03:22:02;5.41;55.22
63976;DHT22;50167;47.958;21.780;2023-01-29T03:27:33;5.39;54.93
63976;DHT22;50167;47.958;21.780;2023-01-29T03:30:19;4.86;57.04
63976;DHT22;50167;47.958;21.780;2023-01-29T03:33:08;5.39;54.75
63976;DHT22;50167;47.958;21.780;2023-01-29T03:35:40;4.88;56.95
63976;DHT22;50167;47.958;21.780;2023-01-29T03:38:08;5.42;55.09
63976;DHT22;50167;47.958;21.780;2023-01-29T03:40:48;4.94;56.32
63976;DHT22;50167;47.958;21.780;2023-01-29T03:43:48;5.41;55.25
63976;DHT22;50167;47.958;21.780;2023-01-29T03:46:26;5.04;56.46
63976;DHT22;50167;47.958;21.780;2023-01-29T03:49:29;5.31;55.19
63976;DHT22;50167;47.958;21.780;2023-01-29T03:52:34;5.15;56.15
63976;DHT22;50167;47.958;21.780;2023-01-29T03:57:54;5.12;56.12
63976;DHT22;50167;47.958;21.780;2023-01-29T04:00:33;5.12;55.41
63976;DHT22;50167;47.958;21.780;2023-01-29T04:08:50;5.38;55.49
63976;DHT22;50167;47.958;21.780;2023-01-29T04:11:18;4.98;55.38
63976;DHT22;50167;47.958;21.780;2023-01-29T04:13:45;5.42;55.81
63976;DHT22;50167;47.958;21.780;2023-01-29T04:16:41;5.10;55.48
63976;DHT22;50167;47.958;21.780;2023-01-29T04:18:48;5.03;56.15
63976;DHT22;50167;47.958;21.780;2023-01-29T04:21:15;5.18;55.07
63976;DHT22;50167;47.958;21.780;2023-01-29T04:23:41;4.94;55.75
63976;DHT22;50167;47.958;21.780;2023-01-29T04:26:36;5.38;55.42
63976;DHT22;50167;47.958;21.780;2023-01-29T04:35:20;5.19;54.45
63976;DHT22;50167;47.958;21.780;2023-01-29T04:40:52;4.94;55.51
63976;DHT22;50167;47.958;21.780;2023-01-29T04:43:37;5.60;54.66
63976;DHT22;50167;47.958;21.780;2023-01-29T04:51:29;5.00;56.03
63976;DHT22;50167;47.958;21.780;2023-01-29T04:54:06;5.28;53.83
63976;DHT22;50167;47.958;21.780;2023-01-29T04:59:08;5.16;54.72
63976;DHT22;50167;47.958;21.780;2023-01-29T05:01:36;5.11;54.88
63976;DHT22;50167;47.958;21.780;2023-01-29T05:04:08;5.39;53.78
63976;DHT22;50167;47.958;21.780;2023-01-29T05:06:35;5.04;55.95
63976;DHT22;50167;47.958;21.780;2023-01-29T05:09:03;5.21;54.46
63976;DHT22;50167;47.958;21.780;2023-01-29T05:11:31;5.41;55.22
63976;DHT22;50167;47.958;21.780;2023-01-29T05:14:00;5.11;54.49
63976;DHT22;50167;47.958;21.780;2023-01-29T05:16:34;5.10;55.55
63976;DHT22;50167;47.958;21.780;2023-01-29T05:19:03;5.36;53.58
63976;DHT22;50167;47.958;21.780;2023-01-29T05:21:29;5.04;55.59
63976;DHT22;50167;47.958;21.780;2023-01-29T05:24:10;5.28;54.27
63976;DHT22;50167;47.958;21.780;2023-01-29T05:26:37;5.42;55.07
63976;DHT22;50167;47.958;21.780;2023-01-29T05:29:22;4.97;55.03
63976;DHT22;50167;47.958;21.780;2023-01-29T05:31:49;5.46;54.90
63976;DHT22;50167;47.958;21.780;2023-01-29T05:34:17;5.10;54.16
63976;DHT22;50167;47.958;21.780;2023-01-29T05:36:43;5.24;54.86
63976;DHT22;50167;47.958;21.780;2023-01-29T05:39:09;5.33;53.97
63976;DHT22;50167;47.958;21.780;2023-01-29T05:41:35;5.01;55.51
63976;DHT22;50167;47.958;21.780;2023-01-29T05:44:02;5.41;53.51
63976;DHT22;50167;47.958;21.780;2023-01-29T05:46:28;4.90;55.72
63976;DHT22;50167;47.958;21.780;2023-01-29T05:48:54;5.59;54.61
63976;DHT22;50167;47.958;21.780;2023-01-29T05:51:20;5.07;53.81
63976;DHT22;50167;47.958;21.780;2023-01-29T05:53:46;5.39;54.50
63976;DHT22;50167;47.958;21.780;2023-01-29T05:56:13;5.12;54.47
63976;DHT22;50167;47.958;21.780;2023-01-29T05:58:39;5.25;53.86
63976;DHT22;50167;47.958;21.780;2023-01-29T06:01:17;5.33;55.21
63976;DHT22;50167;47.958;21.780;2023-01-29T06:03:39;5.10;54.37
63976;DHT22;50167;47.958;21.780;2023-01-29T06:06:06;5.14;54.92
63976;DHT22;50167;47.958;21.780;2023-01-29T06:08:33;5.08;54.27
63976;DHT22;50167;47.958;21.780;2023-01-29T06:10:59;5.41;55.05
63976;DHT22;50167;47.958;21.780;2023-01-29T06:13:25;5.25;53.74
63976;DHT22;50167;47.958;21.780;2023-01-29T06:15:51;5.16;55.09
63976;DHT22;50167;47.958;21.780;2023-01-29T06:18:18;5.39;53.46
63976;DHT22;50167;47.958;21.780;2023-01-29T06:20:45;5.01;54.51
63976;DHT22;50167;47.958;21.780;2023-01-29T06:23:11;5.41;54.18
63976;DHT22;50167;47.958;21.780;2023-01-29T06:25:37;4.88;54.58
63976;DHT22;50167;47.958;21.780;2023-01-29T06:28:03;5.24;54.36
63976;DHT22;50167;47.958;21.780;2023-01-29T06:30:30;5.14;53.79
63976;DHT22;50167;47.958;21.780;2023-01-29T06:32:57;5.46;54.39
63976;DHT22;50167;47.958;21.780;2023-01-29T06:35:24;5.10;53.08
63976;DHT22;50167;47.958;21.780;2023-01-29T06:37:51;5.42;53.48
63976;DHT22;50167;47.958;21.780;2023-01-29T06:40:17;5.07;53.29
63976;DHT22;50167;47.958;21.780;2023-01-29T06:42:44;5.35;53.64
63976;DHT22;50167;47.958;21.780;2023-01-29T06:45:10;5.21;54.67
63976;DHT22;50167;47.958;21.780;2023-01-29T06:47:36;5.45;52.92
63976;DHT22;50167;47.958;21.780;2023-01-29T06:50:03;5.15;54.53
63976;DHT22;50167;47.958;21.780;2023-01-29T06:52:29;5.33;53.25
63976;DHT22;50167;47.958;21.780;2023-01-29T06:54:55;5.16;54.75
63976;DHT22;50167;47.958;21.780;2023-01-29T06:57:22;5.26;53.19
63976;DHT22;50167;47.958;21.780;2023-01-29T06:59:48;5.32;53.99
63976;DHT22;50167;47.958;21.780;2023-01-29T07:02:15;5.29;53.13
63976;DHT22;50167;47.958;21.780;2023-01-29T07:04:41;5.24;54.53
63976;DHT22;50167;47.958;21.780;2023-01-29T07:07:08;5.26;52.92
63976;DHT22;50167;47.958;21.780;2023-01-29T07:09:40;5.43;54.23
63976;DHT22;50167;47.958;21.780;2023-01-29T07:12:08;5.10;53.72
63976;DHT22;50167;47.958;21.780;2023-01-29T07:14:35;5.24;53.93
63976;DHT22;50167;47.958;21.780;2023-01-29T07:17:01;5.19;52.74
63976;DHT22;50167;47.958;21.780;2023-01-29T07:19:27;5.45;53.37
63976;DHT22;50167;47.958;21.780;2023-01-29T07:21:54;4.94;53.91
63976;DHT22;50167;47.958;21.780;2023-01-29T07:24:21;5.50;53.44
63976;DHT22;50167;47.958;21.780;2023-01-29T07:26:47;4.93;54.14
63976;DHT22;50167;47.958;21.780;2023-01-29T07:29:14;5.49;54.85
63976;DHT22;50167;47.958;21.780;2023-01-29T07:31:40;5.18;53.20
63976;DHT22;50167;47.958;21.780;2023-01-29T07:34:06;5.38;55.05
63976;DHT22;50167;47.958;21.780;2023-01-29T07:36:32;5.05;53.70
63976;DHT22;50167;47.958;21.780;2023-01-29T07:38:58;5.28;54.67
63976;DHT22;50167;47.958;21.780;2023-01-29T07:41:24;5.19;52.85
63976;DHT22;50167;47.958;21.780;2023-01-29T07:43:50;5.36;54.25
63976;DHT22;50167;47.958;21.780;2023-01-29T07:46:17;5.11;53.39
63976;DHT22;50167;47.958;21.780;2023-01-29T07:48:43;5.50;54.00
63976;DHT22;50167;47.958;21.780;2023-01-29T07:51:09;5.07;52.92
63976;DHT22;50167;47.958;21.780;2023-01-29T07:53:36;5.56;54.49
63976;DHT22;50167;47.958;21.780;2023-01-29T07:56:02;5.00;54.06
63976;DHT22;50167;47.958;21.780;2023-01-29T07:58:28;5.50;53.27
63976;DHT22;50167;47.958;21.780;2023-01-29T08:00:54;5.03;54.03
63976;DHT22;50167;47.958;21.780;2023-01-29T08:03:21;5.47;53.19
63976;DHT22;50167;47.958;21.780;2023-01-29T08:05:47;5.03;53.32
63976;DHT22;50167;47.958;21.780;2023-01-29T08:08:13;5.56;54.51
63976;DHT22;50167;47.958;21.780;2023-01-29T08:10:40;5.07;53.80
63976;DHT22;50167;47.958;21.780;2023-01-29T08:13:07;5.43;54.19
63976;DHT22;50167;47.958;21.780;2023-01-29T08:15:34;5.10;53.69
63976;DHT22;50167;47.958;21.780;2023-01-29T08:18:01;5.38;53.87
63976;DHT22;50167;47.958;21.780;2023-01-29T08:20:29;5.11;53.22
63976;DHT22;50167;47.958;21.780;2023-01-29T08:23:07;5.36;53.42
63976;DHT22;50167;47.958;21.780;2023-01-29T08:25:34;5.10;54.59
63976;DHT22;50167;47.958;21.780;2023-01-29T08:28:01;5.45;53.24
63976;DHT22;50167;47.958;21.780;2023-01-29T08:30:30;5.01;54.77
63976;DHT22;50167;47.958;21.780;2023-01-29T08:32:57;5.42;53.49
63976;DHT22;50167;47.958;21.780;2023-01-29T08:35:24;4.93;54.75
63976;DHT22;50167;47.958;21.780;2023-01-29T08:37:57;5.45;53.88
63976;DHT22;50167;47.958;21.780;2023-01-29T08:40:29;5.03;54.26
63976;DHT22;50167;47.958;21.780;2023-01-29T08:43:05;5.33;54.00
63976;DHT22;50167;47.958;21.780;2023-01-29T08:45:37;5.00;54.64
63976;DHT22;50167;47.958;21.780;2023-01-29T08:48:05;5.28;53.66
63976;DHT22;50167;47.958;21.780;2023-01-29T08:50:31;5.15;54.49
63976;DHT22;50167;47.958;21.780;2023-01-29T08:53:09;5.08;54.14
63976;DHT22;50167;47.958;21.780;2023-01-29T08:55:45;5.29;53.62
63976;DHT22;50167;47.958;21.780;2023-01-29T08:58:11;4.95;54.35
63976;DHT22;50167;47.958;21.780;2023-01-29T09:00:38;5.39;53.05
63976;DHT22;50167;47.958;21.780;2023-01-29T09:03:04;5.03;54.52
63976;DHT22;50167;47.958;21.780;2023-01-29T09:05:34;5.41;53.44
63976;DHT22;50167;47.958;21.780;2023-01-29T09:08:01;5.03;55.15
63976;DHT22;50167;47.958;21.780;2023-01-29T09:10:27;5.35;53.97
63976;DHT22;50167;47.958;21.780;2023-01-29T09:12:53;5.14;55.19
63976;DHT22;50167;47.958;21.780;2023-01-29T09:15:19;5.25;54.41
63976;DHT22;50167;47.958;21.780;2023-01-29T09:17:45;5.33;55.69
63976;DHT22;50167;47.958;21.780;2023-01-29T09:20:14;5.15;54.86
63976;DHT22;50167;47.958;21.780;2023-01-29T09:22:41;5.39;55.71
63976;DHT22;50167;47.958;21.780;2023-01-29T09:25:08;5.24;54.66
63976;DHT22;50167;47.958;21.780;2023-01-29T09:27:34;5.26;55.89
63976;DHT22;50167;47.958;21.780;2023-01-29T09:30:00;5.24;54.37
63976;DHT22;50167;47.958;21.780;2023-01-29T09:32:26;5.26;55.49
63976;DHT22;50167;47.958;21.780;2023-01-29T09:34:56;5.15;54.84
63976;DHT22;50167;47.958;21.780;2023-01-29T09:37:22;5.15;55.34
63976;DHT22;50167;47.958;21.780;2023-01-29T09:39:49;5.16;54.58
63976;DHT22;50167;47.958;21.780;2023-01-29T09:42:33;5.31;54.67
63976;DHT22;50167;47.958;21.780;2023-01-29T09:45:15;4.98;54.97
63976;DHT22;50167;47.958;21.780;2023-01-29T09:47:42;5.50;54.10
63976;DHT22;50167;47.958;21.780;2023-01-29T09:55:52;5.39;54.26
63976;DHT22;50167;47.958;21.780;2023-01-29T09:58:27;5.01;54.74
63976;DHT22;50167;47.958;21.780;2023-01-29T10:03:58;4.98;54.66
63976;DHT22;50167;47.958;21.780;2023-01-29T10:15:12;5.08;54.95
63976;DHT22;50167;47.958;21.780;2023-01-29T10:17:53;5.14;53.93
63976;DHT22;50167;47.958;21.780;2023-01-29T10:23:36;5.29;56.82
63976;DHT22;50167;47.958;21.780;2023-01-29T10:26:03;5.28;56.25
63976;DHT22;50167;47.958;21.780;2023-01-29T10:28:38;5.32;56.36
63976;DHT22;50167;47.958;21.780;2023-01-29T10:34:03;5.38;54.25
63976;DHT22;50167;47.958;21.780;2023-01-29T10:36:46;5.08;54.69
63976;DHT22;50167;47.958;21.780;2023-01-29T10:39:21;5.47;52.41
63976;DHT22;50167;47.958;21.780;2023-01-29T10:42:05;4.86;53.20
63976;DHT22;50167;47.958;21.780;2023-01-29T10:45:20;5.49;51.89
63976;DHT22;50167;47.958;21.780;2023-01-29T10:57:00;4.97;51.94
63976;DHT22;50167;47.958;21.780;2023-01-29T11:02:17;4.97;52.24
63976;DHT22;50167;47.958;21.780;2023-01-29T11:04:44;5.21;51.09
63976;DHT22;50167;47.958;21.780;2023-01-29T11:07:12;5.25;51.73
63976;DHT22;50167;47.958;21.780;2023-01-29T11:09:55;5.00;51.63
63976;DHT22;50167;47.958;21.780;2023-01-29T11:12:22;5.28;51.42
63976;DHT22;50167;47.958;21.780;2023-01-29T11:17:29;5.16;51.47
63976;DHT22;50167;47.958;21.780;2023-01-29T11:19:55;5.32;50.33
63976;DHT22;50167;47.958;21.780;2023-01-29T11:22:25;4.69;51.86
63976;DHT22;50167;47.958;21.780;2023-01-29T11:25:18;5.28;50.70
63976;DHT22;50167;47.958;21.780;2023-01-29T11:27:59;4.87;51.91
63976;DHT22;50167;47.958;21.780;2023-01-29T11:30:38;5.32;51.13
63976;DHT22;50167;47.958;21.780;2023-01-29T11:33:18;4.76;51.52
63976;DHT22;50167;47.958;21.780;2023-01-29T11:35:45;5.14;51.04
63976;DHT22;50167;47.958;21.780;2023-01-29T11:38:27;5.08;50.99
63976;DHT22;50167;47.958;21.780;2023-01-29T11:41:15;5.12;51.30
63976;DHT22;50167;47.958;21.780;2023-01-29T11:43:43;4.98;51.32
63976;DHT22;50167;47.958;21.780;2023-01-29T11:46:14;5.22;51.18
63976;DHT22;50167;47.958;21.780;2023-01-29T11:48:47;5.14;50.97
63976;DHT22;50167;47.958;21.780;2023-01-29T11:51:26;5.05;51.57
63976;DHT22;50167;47.958;21.780;2023-01-29T11:54:00;5.38;50.66
63976;DHT22;50167;47.958;21.780;2023-01-29T11:56:31;4.98;51.97
63976;DHT22;50167;47.958;21.780;2023-01-29T11:58:59;5.39;51.10
63976;DHT22;50167;47.958;21.780;2023-01-29T12:01:32;4.86;51.85
63976;DHT22;50167;47.958;21.780;2023-01-29T12:03:59;5.59;51.07
63976;DHT22;50167;47.958;21.780;2023-01-29T12:06:35;5.19;49.55
63976;DHT22;50167;47.958;21.780;2023-01-29T12:09:10;5.47;51.80
63976;DHT22;50167;47.958;21.780;2023-01-29T12:11:38;5.21;50.17
63976;DHT22;50167;47.958;21.780;2023-01-29T12:17:09;4.98;51.27
63976;DHT22;50167;47.958;21.780;2023-01-29T12:19:53;5.45;51.39
63976;DHT22;50167;47.958;21.780;2023-01-29T12:25:24;5.32;50.33
63976;DHT22;50167;47.958;21.780;2023-01-29T12:28:18;5.12;49.90
63976;DHT22;50167;47.958;21.780;2023-01-29T12:37:11;5.39;49.64
63976;DHT22;50167;47.958;21.780;2023-01-29T12:39:37;5.15;49.30
63976;DHT22;50167;47.958;21.780;2023-01-29T12:42:15;5.46;50.12
63976;DHT22;50167;47.958;21.780;2023-01-29T12:44:51;5.11;49.59
63976;DHT22;50167;47.958;21.780;2023-01-29T12:50:34;5.10;50.00
63976;DHT22;50167;47.958;21.780;2023-01-29T12:55:49;5.38;50.28
63976;DHT22;50167;47.958;21.780;2023-01-29T12:58:45;5.08;50.05
63976;DHT22;50167;47.958;21.780;2023-01-29T13:01:33;5.42;49.72
63976;DHT22;50167;47.958;21.780;2023-01-29T13:04:37;5.14;50.74
63976;DHT22;50167;47.958;21.780;2023-01-29T13:07:16;5.26;49.53
63976;DHT22;50167;47.958;21.780;2023-01-29T13:09:48;5.35;50.97
63976;DHT22;50167;47.958;21.780;2023-01-29T13:12:20;5.33;49.51
63976;DHT22;50167;47.958;21.780;2023-01-29T13:17:55;5.25;49.35
63976;DHT22;50167;47.958;21.780;2023-01-29T13:20:26;5.11;50.91
63976;DHT22;50167;47.958;21.780;2023-01-29T13:22:57;5.31;49.56
63976;DHT22;50167;47.958;21.780;2023-01-29T13:25:24;5.11;50.55
63976;DHT22;50167;47.958;21.780;2023-01-29T13:27:50;5.25;49.14
63976;DHT22;50167;47.958;21.780;2023-01-29T13:30:32;5.26;48.83
63976;DHT22;50167;47.958;21.780;2023-01-29T13:33:02;5.04;50.27
63976;DHT22;50167;47.958;21.780;2023-01-29T13:35:37;5.21;49.08
63976;DHT22;50167;47.958;21.780;2023-01-29T13:38:05;5.45;49.42
63976;DHT22;50167;47.958;21.780;2023-01-29T13:40:33;5.03;49.57
63976;DHT22;50167;47.958;21.780;2023-01-29T13:43:01;5.53;49.74
63976;DHT22;50167;47.958;21.780;2023-01-29T13:45:41;5.03;50.11
63976;DHT22;50167;47.958;21.780;2023-01-29T13:48:28;5.56;49.55
63976;DHT22;50167;47.958;21.780;2023-01-29T13:51:02;5.15;49.90
63976;DHT22;50167;47.958;21.780;2023-01-29T13:53:39;5.42;49.34
63976;DHT22;50167;47.958;21.780;2023-01-29T13:59:04;5.38;47.71
63976;DHT22;50167;47.958;21.780;2023-01-29T14:04:27;5.42;47.51
63976;DHT22;50167;47.958;21.780;2023-01-29T14:06:56;5.38;50.53
63976;DHT22;50167;47.958;21.780;2023-01-29T14:15:02;5.46;47.94
63976;DHT22;50167;47.958;21.780;2023-01-29T14:17:29;5.18;49.27
63976;DHT22;50167;47.958;21.780;2023-01-29T14:20:15;5.50;49.34
63976;DHT22;50167;47.958;21.780;2023-01-29T14:22:42;5.15;49.91
63976;DHT22;50167;47.958;21.780;2023-01-29T14:25:15;5.54;48.51
63976;DHT22;50167;47.958;21.780;2023-01-29T14:27:46;5.08;48.22
63976;DHT22;50167;47.958;21.780;2023-01-29T14:30:17;5.56;49.19
63976;DHT22;50167;47.958;21.780;2023-01-29T14:32:46;5.10;47.95
63976;DHT22;50167;47.958;21.780;2023-01-29T14:35:23;5.59;50.00
63976;DHT22;50167;47.958;21.780;2023-01-29T14:37:53;5.11;47.33
63976;DHT22;50167;47.958;21.780;2023-01-29T14:40:24;5.63;50.18
63976;DHT22;50167;47.958;21.780;2023-01-29T14:45:36;5.54;50.64
63976;DHT22;50167;47.958;21.780;2023-01-29T14:51:03;5.52;50.30
63976;DHT22;50167;47.958;21.780;2023-01-29T14:56:35;5.50;50.05
63976;DHT22;50167;47.958;21.780;2023-01-29T14:59:25;5.12;49.41
63976;DHT22;50167;47.958;21.780;2023-01-29T15:02:01;5.36;48.41
63976;DHT22;50167;47.958;21.780;2023-01-29T15:04:40;5.38;50.91
63976;DHT22;50167;47.958;21.780;2023-01-29T15:07:26;5.47;47.85
63976;DHT22;50167;47.958;21.780;2023-01-29T15:09:57;5.19;49.50
63976;DHT22;50167;47.958;21.780;2023-01-29T15:12:54;5.50;47.90
63976;DHT22;50167;47.958;21.780;2023-01-29T15:15:41;5.22;49.98
63976;DHT22;50167;47.958;21.780;2023-01-29T15:20:39;5.21;50.17
63976;DHT22;50167;47.958;21.780;2023-01-29T15:23:30;5.52;48.77
63976;DHT22;50167;47.958;21.780;2023-01-29T15:26:01;5.22;50.37
63976;DHT22;50167;47.958;21.780;2023-01-29T15:28:28;5.49;47.37
63976;DHT22;50167;47.958;21.780;2023-01-29T15:31:01;5.18;49.09
63976;DHT22;50167;47.958;21.780;2023-01-29T15:33:34;5.36;48.10
63976;DHT22;50167;47.958;21.780;2023-01-29T15:36:04;5.22;50.14
63976;DHT22;50167;47.958;21.780;2023-01-29T15:38:31;5.39;48.85
63976;DHT22;50167;47.958;21.780;2023-01-29T15:41:13;5.18;50.59
63976;DHT22;50167;47.958;21.780;2023-01-29T15:43:43;5.31;49.04
63976;DHT22;50167;47.958;21.780;2023-01-29T15:46:06;5.18;50.62
63976;DHT22;50167;47.958;21.780;2023-01-29T15:48:36;5.25;48.76
63976;DHT22;50167;47.958;21.780;2023-01-29T15:51:09;5.16;50.57
63976;DHT22;50167;47.958;21.780;2023-01-29T15:53:52;5.29;48.57
63976;DHT22;50167;47.958;21.780;2023-01-29T15:56:33;5.58;52.32
63976;DHT22;50167;47.958;21.780;2023-01-29T15:58:59;5.38;47.20
63976;DHT22;50167;47.958;21.780;2023-01-29T16:01:28;5.31;50.17
63976;DHT22;50167;47.958;21.780;2023-01-29T16:03:55;5.46;47.53
63976;DHT22;50167;47.958;21.780;2023-01-29T16:06:23;5.19;49.72
63976;DHT22;50167;47.958;21.780;2023-01-29T16:08:52;5.28;47.67
63976;DHT22;50167;47.958;21.780;2023-01-29T16:11:19;5.46;51.49
63976;DHT22;50167;47.958;21.780;2023-01-29T16:13:48;5.32;47.46
63976;DHT22;50167;47.958;21.780;2023-01-29T16:16:26;5.32;51.51
63976;DHT22;50167;47.958;21.780;2023-01-29T16:18:53;5.50;48.06
63976;DHT22;50167;47.958;21.780;2023-01-29T16:24:10;5.52;48.37
63976;DHT22;50167;47.958;21.780;2023-01-29T16:26:35;5.19;50.05
63976;DHT22;50167;47.958;21.780;2023-01-29T16:29:04;5.59;48.52
63976;DHT22;50167;47.958;21.780;2023-01-29T16:31:32;5.12;49.09
63976;DHT22;50167;47.958;21.780;2023-01-29T16:33:58;5.58;49.56
63976;DHT22;50167;47.958;21.780;2023-01-29T16:36:27;5.11;48.96
63976;DHT22;50167;47.958;21.780;2023-01-29T16:39:03;5.56;49.66
63976;DHT22;50167;47.958;21.780;2023-01-29T16:41:33;5.08;49.62
63976;DHT22;50167;47.958;21.780;2023-01-29T16:46:47;5.16;49.80
63976;DHT22;50167;47.958;21.780;2023-01-29T16:52:31;5.10;50.49
63976;DHT22;50167;47.958;21.780;2023-01-29T16:57:49;5.32;51.85
63976;DHT22;50167;47.958;21.780;2023-01-29T17:00:23;5.41;48.20
63976;DHT22;50167;47.958;21.780;2023-01-29T17:02:53;5.16;51.14
63976;DHT22;50167;47.958;21.780;2023-01-29T17:05:26;5.39;48.66
63976;DHT22;50167;47.958;21.780;2023-01-29T17:07:56;5.19;51.25
63976;DHT22;50167;47.958;21.780;2023-01-29T17:10:25;5.39;49.08
63976;DHT22;50167;47.958;21.780;2023-01-29T17:13:08;5.21;51.72
63976;DHT22;50167;47.958;21.780;2023-01-29T17:15:45;5.42;49.10
63976;DHT22;50167;47.958;21.780;2023-01-29T17:18:19;5.24;51.26
63976;DHT22;50167;47.958;21.780;2023-01-29T17:20:46;5.42;48.17
63976;DHT22;50167;47.958;21.780;2023-01-29T17:23:14;5.14;50.96
63976;DHT22;50167;47.958;21.780;2023-01-29T17:25:40;5.41;49.17
63976;DHT22;50167;47.958;21.780;2023-01-29T17:28:08;5.08;50.23
63976;DHT22;50167;47.958;21.780;2023-01-29T17:30:35;5.36;49.33
63976;DHT22;50167;47.958;21.780;2023-01-29T17:35:39;5.35;48.33
63976;DHT22;50167;47.958;21.780;2023-01-29T17:38:14;5.39;52.80
63976;DHT22;50167;47.958;21.780;2023-01-29T17:41:01;5.52;47.57
63976;DHT22;50167;47.958;21.780;2023-01-29T17:43:27;5.25;51.81
63976;DHT22;50167;47.958;21.780;2023-01-29T17:45:53;5.52;48.34
63976;DHT22;50167;47.958;21.780;2023-01-29T17:48:27;5.10;50.23
63976;DHT22;50167;47.958;21.780;2023-01-29T17:51:01;5.53;49.57
63976;DHT22;50167;47.958;21.780;2023-01-29T17:53:24;5.12;51.24
63976;DHT22;50167;47.958;21.780;2023-01-29T17:55:50;5.66;50.32
63976;DHT22;50167;47.958;21.780;2023-01-29T17:58:19;5.11;48.22
63976;DHT22;50167;47.958;21.780;2023-01-29T18:00:47;5.60;51.00
63976;DHT22;50167;47.958;21.780;2023-01-29T18:03:14;5.11;48.42
63976;DHT22;50167;47.958;21.780;2023-01-29T18:05:42;5.63;50.43
63976;DHT22;50167;47.958;21.780;2023-01-29T18:08:29;5.14;48.17
63976;DHT22;50167;47.958;21.780;2023-01-29T18:10:54;5.56;50.93
63976;DHT22;50167;47.958;21.780;2023-01-29T18:13:27;5.05;48.74
63976;DHT22;50167;47.958;21.780;2023-01-29T18:15:53;5.59;50.48